sensor_id;sensor_type;location;lat;lon;timestamp;temperature;humidity
9118;DHT22;4594;50.994;7.126;2023-12-07T00:01:41;6.10;61.10
9118;DHT22;4594;50.994;7.126;2023-12-07T00:04:07;6.10;61.10
9118;DHT22;4594;50.994;7.126;2023-12-07T00:06:33;6.10;60.90
9118;DHT22;4594;50.994;7.126;2023-12-07T00:08:58;6.20;61.00
9118;DHT22;4594;50.994;7.126;2023-12-07T00:11:26;6.20;60.70
9118;DHT22;4594;50.994;7.126;2023-12-07T00:13:52;6.20;60.60
9118;DHT22;4594;50.994;7.126;2023-12-07T00:16:17;6.20;60.50
9118;DHT22;4594;50.994;7.126;2023-12-07T00:18:43;6.20;60.40
9118;DHT22;4594;50.994;7.126;2023-12-07T00:21:09;6.20;60.30
9118;DHT22;4594;50.994;7.126;2023-12-07T00:23:35;6.20;60.00
9118;DHT22;4594;50.994;7.126;2023-12-07T00:26:03;6.20;59.70
9118;DHT22;4594;50.994;7.126;2023-12-07T00:28:29;6.20;59.40
9118;DHT22;4594;50.994;7.126;2023-12-07T00:30:55;6.10;59.00
9118;DHT22;4594;50.994;7.126;2023-12-07T00:33:21;6.10;58.50
9118;DHT22;4594;50.994;7.126;2023-12-07T00:35:48;6.10;58.10
9118;DHT22;4594;50.994;7.126;2023-12-07T00:38:14;6.00;57.70
9118;DHT22;4594;50.994;7.126;2023-12-07T00:40:39;5.90;57.30
9118;DHT22;4594;50.994;7.126;2023-12-07T00:43:06;5.90;57.00
9118;DHT22;4594;50.994;7.126;2023-12-07T00:45:35;5.80;56.70
9118;DHT22;4594;50.994;7.126;2023-12-07T00:48:00;5.70;56.50
9118;DHT22;4594;50.994;7.126;2023-12-07T00:50:26;5.60;56.30
9118;DHT22;4594;50.994;7.126;2023-12-07T00:52:52;5.50;56.10
9118;DHT22;4594;50.994;7.126;2023-12-07T00:55:17;5.50;56.00
9118;DHT22;4594;50.994;7.126;2023-12-07T00:57:43;5.40;55.80
9118;DHT22;4594;50.994;7.126;2023-12-07T01:00:09;5.30;55.70
9118;DHT22;4594;50.994;7.126;2023-12-07T01:02:36;5.20;55.60
9118;DHT22;4594;50.994;7.126;2023-12-07T01:05:01;5.20;55.70
9118;DHT22;4594;50.994;7.126;2023-12-07T01:07:27;5.00;55.60
9118;DHT22;4594;50.994;7.126;2023-12-07T01:09:53;5.00;55.70
9118;DHT22;4594;50.994;7.126;2023-12-07T01:12:18;4.90;55.90
9118;DHT22;4594;50.994;7.126;2023-12-07T01:14:45;4.90;56.30
9118;DHT22;4594;50.994;7.126;2023-12-07T01:17:11;4.80;56.70
9118;DHT22;4594;50.994;7.126;2023-12-07T01:19:36;4.80;57.10
9118;DHT22;4594;50.994;7.126;2023-12-07T01:22:02;4.90;57.70
9118;DHT22;4594;50.994;7.126;2023-12-07T01:24:28;4.80;58.10
9118;DHT22;4594;50.994;7.126;2023-12-07T01:26:54;4.80;58.60
9118;DHT22;4594;50.994;7.126;2023-12-07T01:29:20;4.90;59.00
9118;DHT22;4594;50.994;7.126;2023-12-07T01:31:46;4.90;59.20
9118;DHT22;4594;50.994;7.126;2023-12-07T01:34:11;4.90;59.40
9118;DHT22;4594;50.994;7.126;2023-12-07T01:36:37;4.90;59.60
9118;DHT22;4594;50.994;7.126;2023-12-07T01:39:03;5.00;59.90
9118;DHT22;4594;50.994;7.126;2023-12-07T01:41:28;5.00;60.10
9118;DHT22;4594;50.994;7.126;2023-12-07T01:43:54;5.10;60.50
9118;DHT22;4594;50.994;7.126;2023-12-07T01:46:20;5.10;60.70
9118;DHT22;4594;50.994;7.126;2023-12-07T01:48:46;5.20;61.00
9118;DHT22;4594;50.994;7.126;2023-12-07T01:51:16;5.20;61.10
9118;DHT22;4594;50.994;7.126;2023-12-07T01:53:43;5.30;61.30
9118;DHT22;4594;50.994;7.126;2023-12-07T01:56:09;5.30;61.40
9118;DHT22;4594;50.994;7.126;2023-12-07T01:58:36;5.40;61.50
9118;DHT22;4594;50.994;7.126;2023-12-07T02:01:03;5.40;61.60
9118;DHT22;4594;50.994;7.126;2023-12-07T02:03:31;5.50;61.70
9118;DHT22;4594;50.994;7.126;2023-12-07T02:05:58;5.50;61.70
9118;DHT22;4594;50.994;7.126;2023-12-07T02:08:24;5.50;61.80
9118;DHT22;4594;50.994;7.126;2023-12-07T02:10:50;5.60;61.80
9118;DHT22;4594;50.994;7.126;2023-12-07T02:13:20;5.60;61.80
9118;DHT22;4594;50.994;7.126;2023-12-07T02:15:47;5.70;61.70
9118;DHT22;4594;50.994;7.126;2023-12-07T02:18:33;5.70;61.90
9118;DHT22;4594;50.994;7.126;2023-12-07T02:21:25;5.80;60.70
9118;DHT22;4594;50.994;7.126;2023-12-07T02:24:19;5.80;60.50
9118;DHT22;4594;50.994;7.126;2023-12-07T02:26:47;5.90;61.60
9118;DHT22;4594;50.994;7.126;2023-12-07T02:29:14;5.90;62.00
9118;DHT22;4594;50.994;7.126;2023-12-07T02:31:40;5.90;62.00
9118;DHT22;4594;50.994;7.126;2023-12-07T02:34:06;5.90;62.10
9118;DHT22;4594;50.994;7.126;2023-12-07T02:36:32;6.00;62.20
9118;DHT22;4594;50.994;7.126;2023-12-07T02:39:02;6.00;62.30
9118;DHT22;4594;50.994;7.126;2023-12-07T02:41:30;6.00;62.30
9118;DHT22;4594;50.994;7.126;2023-12-07T02:43:57;6.10;62.30
9118;DHT22;4594;50.994;7.126;2023-12-07T02:46:25;6.10;62.50
9118;DHT22;4594;50.994;7.126;2023-12-07T02:48:51;6.10;62.40
9118;DHT22;4594;50.994;7.126;2023-12-07T02:51:18;6.10;62.40
9118;DHT22;4594;50.994;7.126;2023-12-07T02:53:44;6.20;62.40
9118;DHT22;4594;50.994;7.126;2023-12-07T02:56:10;6.20;62.30
9118;DHT22;4594;50.994;7.126;2023-12-07T02:58:35;6.20;62.40
9118;DHT22;4594;50.994;7.126;2023-12-07T03:01:01;6.30;62.50
9118;DHT22;4594;50.994;7.126;2023-12-07T03:03:27;6.30;62.50
9118;DHT22;4594;50.994;7.126;2023-12-07T03:05:52;6.30;62.40
9118;DHT22;4594;50.994;7.126;2023-12-07T03:08:18;6.30;62.30
9118;DHT22;4594;50.994;7.126;2023-12-07T03:10:44;6.30;62.10
9118;DHT22;4594;50.994;7.126;2023-12-07T03:13:09;6.40;62.20
9118;DHT22;4594;50.994;7.126;2023-12-07T03:15:35;6.40;62.20
9118;DHT22;4594;50.994;7.126;2023-12-07T03:18:01;6.40;62.10
9118;DHT22;4594;50.994;7.126;2023-12-07T03:20:26;6.40;62.00
9118;DHT22;4594;50.994;7.126;2023-12-07T03:22:52;7.20;62.70
9118;DHT22;4594;50.994;7.126;2023-12-07T03:25:18;6.40;61.90
9118;DHT22;4594;50.994;7.126;2023-12-07T03:27:43;6.40;61.90
9118;DHT22;4594;50.994;7.126;2023-12-07T03:30:09;6.40;62.00
9118;DHT22;4594;50.994;7.126;2023-12-07T03:32:35;6.40;62.10
9118;DHT22;4594;50.994;7.126;2023-12-07T03:35:01;6.40;61.90
9118;DHT22;4594;50.994;7.126;2023-12-07T03:37:27;6.40;61.80
9118;DHT22;4594;50.994;7.126;2023-12-07T03:39:53;6.40;61.70
9118;DHT22;4594;50.994;7.126;2023-12-07T03:42:19;6.50;62.00
9118;DHT22;4594;50.994;7.126;2023-12-07T03:44:44;6.50;61.60
9118;DHT22;4594;50.994;7.126;2023-12-07T03:47:10;6.50;61.50
9118;DHT22;4594;50.994;7.126;2023-12-07T03:49:36;6.50;61.40
9118;DHT22;4594;50.994;7.126;2023-12-07T03:52:03;6.50;61.30
9118;DHT22;4594;50.994;7.126;2023-12-07T03:54:29;6.50;61.30
9118;DHT22;4594;50.994;7.126;2023-12-07T03:56:55;6.50;61.70
9118;DHT22;4594;50.994;7.126;2023-12-07T03:59:20;6.40;61.20
9118;DHT22;4594;50.994;7.126;2023-12-07T04:01:46;6.40;61.20
9118;DHT22;4594;50.994;7.126;2023-12-07T04:04:12;6.50;61.20
9118;DHT22;4594;50.994;7.126;2023-12-07T04:06:37;6.50;61.30
9118;DHT22;4594;50.994;7.126;2023-12-07T04:09:04;6.50;61.40
9118;DHT22;4594;50.994;7.126;2023-12-07T04:11:29;6.50;61.40
9118;DHT22;4594;50.994;7.126;2023-12-07T04:13:55;6.50;61.60
9118;DHT22;4594;50.994;7.126;2023-12-07T04:16:21;6.50;61.70
9118;DHT22;4594;50.994;7.126;2023-12-07T04:18:47;6.50;61.70
9118;DHT22;4594;50.994;7.126;2023-12-07T04:21:12;6.50;61.70
9118;DHT22;4594;50.994;7.126;2023-12-07T04:23:38;6.50;61.50
9118;DHT22;4594;50.994;7.126;2023-12-07T04:26:04;6.50;61.50
9118;DHT22;4594;50.994;7.126;2023-12-07T04:28:30;6.50;61.50
9118;DHT22;4594;50.994;7.126;2023-12-07T04:30:55;6.50;61.50
9118;DHT22;4594;50.994;7.126;2023-12-07T04:33:21;6.50;61.50
9118;DHT22;4594;50.994;7.126;2023-12-07T04:35:47;6.60;61.50
9118;DHT22;4594;50.994;7.126;2023-12-07T04:38:13;6.60;61.30
9118;DHT22;4594;50.994;7.126;2023-12-07T04:40:38;6.60;61.10
9118;DHT22;4594;50.994;7.126;2023-12-07T04:43:04;6.50;60.80
9118;DHT22;4594;50.994;7.126;2023-12-07T04:45:29;6.60;60.90
9118;DHT22;4594;50.994;7.126;2023-12-07T04:47:55;6.60;60.80
9118;DHT22;4594;50.994;7.126;2023-12-07T04:50:22;6.60;60.60
9118;DHT22;4594;50.994;7.126;2023-12-07T04:52:49;6.60;60.50
9118;DHT22;4594;50.994;7.126;2023-12-07T04:55:14;6.60;60.00
9118;DHT22;4594;50.994;7.126;2023-12-07T04:57:41;6.50;59.60
9118;DHT22;4594;50.994;7.126;2023-12-07T05:00:07;6.40;59.20
9118;DHT22;4594;50.994;7.126;2023-12-07T05:02:37;6.40;58.90
9118;DHT22;4594;50.994;7.126;2023-12-07T05:05:03;6.40;58.50
9118;DHT22;4594;50.994;7.126;2023-12-07T05:07:30;6.30;58.10
9118;DHT22;4594;50.994;7.126;2023-12-07T05:09:56;6.30;57.90
9118;DHT22;4594;50.994;7.126;2023-12-07T05:12:21;6.20;57.60
9118;DHT22;4594;50.994;7.126;2023-12-07T05:14:47;6.10;57.40
9118;DHT22;4594;50.994;7.126;2023-12-07T05:17:12;6.00;57.20
9118;DHT22;4594;50.994;7.126;2023-12-07T05:19:39;5.90;56.90
9118;DHT22;4594;50.994;7.126;2023-12-07T05:22:04;5.80;56.70
9118;DHT22;4594;50.994;7.126;2023-12-07T05:24:30;5.80;56.40
9118;DHT22;4594;50.994;7.126;2023-12-07T05:26:57;5.70;56.20
9118;DHT22;4594;50.994;7.126;2023-12-07T05:29:23;5.60;56.00
9118;DHT22;4594;50.994;7.126;2023-12-07T05:31:49;5.50;55.90
9118;DHT22;4594;50.994;7.126;2023-12-07T05:34:16;5.40;55.90
9118;DHT22;4594;50.994;7.126;2023-12-07T05:36:42;5.40;56.10
9118;DHT22;4594;50.994;7.126;2023-12-07T05:39:08;5.30;56.10
9118;DHT22;4594;50.994;7.126;2023-12-07T05:41:34;5.20;56.20
9118;DHT22;4594;50.994;7.126;2023-12-07T05:44:00;5.20;56.20
9118;DHT22;4594;50.994;7.126;2023-12-07T05:46:26;5.10;56.10
9118;DHT22;4594;50.994;7.126;2023-12-07T05:48:52;5.00;56.00
9118;DHT22;4594;50.994;7.126;2023-12-07T05:51:17;5.00;56.10
9118;DHT22;4594;50.994;7.126;2023-12-07T05:53:45;4.90;56.10
9118;DHT22;4594;50.994;7.126;2023-12-07T05:56:11;4.90;56.10
9118;DHT22;4594;50.994;7.126;2023-12-07T05:58:37;4.80;56.10
9118;DHT22;4594;50.994;7.126;2023-12-07T06:01:03;4.70;56.00
9118;DHT22;4594;50.994;7.126;2023-12-07T06:03:29;4.70;56.20
9118;DHT22;4594;50.994;7.126;2023-12-07T06:05:55;4.60;56.70
9118;DHT22;4594;50.994;7.126;2023-12-07T06:08:21;4.60;57.10
9118;DHT22;4594;50.994;7.126;2023-12-07T06:10:48;4.60;57.40
9118;DHT22;4594;50.994;7.126;2023-12-07T06:13:14;4.60;57.60
9118;DHT22;4594;50.994;7.126;2023-12-07T06:15:40;4.60;57.80
9118;DHT22;4594;50.994;7.126;2023-12-07T06:18:06;4.60;57.90
9118;DHT22;4594;50.994;7.126;2023-12-07T06:20:32;4.60;58.10
9118;DHT22;4594;50.994;7.126;2023-12-07T06:22:58;4.50;58.10
9118;DHT22;4594;50.994;7.126;2023-12-07T06:25:24;4.50;58.10
9118;DHT22;4594;50.994;7.126;2023-12-07T06:27:49;4.50;58.10
9118;DHT22;4594;50.994;7.126;2023-12-07T06:30:15;4.50;58.20
9118;DHT22;4594;50.994;7.126;2023-12-07T06:32:41;4.50;58.30
9118;DHT22;4594;50.994;7.126;2023-12-07T06:35:07;4.50;58.30
9118;DHT22;4594;50.994;7.126;2023-12-07T06:37:33;4.50;58.30
9118;DHT22;4594;50.994;7.126;2023-12-07T06:39:59;4.50;58.20
9118;DHT22;4594;50.994;7.126;2023-12-07T06:42:26;4.50;58.20
9118;DHT22;4594;50.994;7.126;2023-12-07T06:44:52;4.50;58.20
9118;DHT22;4594;50.994;7.126;2023-12-07T06:47:18;4.40;58.10
9118;DHT22;4594;50.994;7.126;2023-12-07T06:49:44;4.40;58.10
9118;DHT22;4594;50.994;7.126;2023-12-07T06:52:11;4.40;58.00
9118;DHT22;4594;50.994;7.126;2023-12-07T06:54:37;4.40;58.00
9118;DHT22;4594;50.994;7.126;2023-12-07T06:57:06;4.40;58.00
9118;DHT22;4594;50.994;7.126;2023-12-07T06:59:33;4.40;58.00
9118;DHT22;4594;50.994;7.126;2023-12-07T07:01:59;4.40;58.00
9118;DHT22;4594;50.994;7.126;2023-12-07T07:04:24;4.40;58.00
9118;DHT22;4594;50.994;7.126;2023-12-07T07:06:50;4.30;57.90
9118;DHT22;4594;50.994;7.126;2023-12-07T07:09:17;4.30;57.90
9118;DHT22;4594;50.994;7.126;2023-12-07T07:11:49;4.30;57.90
9118;DHT22;4594;50.994;7.126;2023-12-07T07:14:16;4.30;57.80
9118;DHT22;4594;50.994;7.126;2023-12-07T07:16:43;4.40;58.10
9118;DHT22;4594;50.994;7.126;2023-12-07T07:19:09;4.30;58.00
9118;DHT22;4594;50.994;7.126;2023-12-07T07:21:36;4.20;58.00
9118;DHT22;4594;50.994;7.126;2023-12-07T07:24:01;4.20;58.00
9118;DHT22;4594;50.994;7.126;2023-12-07T07:26:27;4.20;58.00
9118;DHT22;4594;50.994;7.126;2023-12-07T07:28:53;4.20;58.00
9118;DHT22;4594;50.994;7.126;2023-12-07T07:31:19;4.20;58.00
9118;DHT22;4594;50.994;7.126;2023-12-07T07:33:45;4.20;58.00
9118;DHT22;4594;50.994;7.126;2023-12-07T07:36:13;4.20;58.10
9118;DHT22;4594;50.994;7.126;2023-12-07T07:38:42;4.20;58.10
9118;DHT22;4594;50.994;7.126;2023-12-07T07:41:09;4.20;58.20
9118;DHT22;4594;50.994;7.126;2023-12-07T07:43:36;4.20;58.30
9118;DHT22;4594;50.994;7.126;2023-12-07T07:46:03;4.20;58.40
9118;DHT22;4594;50.994;7.126;2023-12-07T07:48:29;4.20;58.50
9118;DHT22;4594;50.994;7.126;2023-12-07T07:50:55;4.20;59.00
9118;DHT22;4594;50.994;7.126;2023-12-07T07:53:21;4.30;59.70
9118;DHT22;4594;50.994;7.126;2023-12-07T07:55:46;4.40;60.50
9118;DHT22;4594;50.994;7.126;2023-12-07T07:58:12;4.50;61.60
9118;DHT22;4594;50.994;7.126;2023-12-07T08:00:38;4.60;62.60
9118;DHT22;4594;50.994;7.126;2023-12-07T08:03:03;4.80;63.70
9118;DHT22;4594;50.994;7.126;2023-12-07T08:05:29;4.90;64.40
9118;DHT22;4594;50.994;7.126;2023-12-07T08:07:55;5.10;65.30
9118;DHT22;4594;50.994;7.126;2023-12-07T08:10:20;5.30;66.10
9118;DHT22;4594;50.994;7.126;2023-12-07T08:12:46;5.50;66.80
9118;DHT22;4594;50.994;7.126;2023-12-07T08:15:12;5.70;67.40
9118;DHT22;4594;50.994;7.126;2023-12-07T08:17:41;6.00;68.00
9118;DHT22;4594;50.994;7.126;2023-12-07T08:20:08;6.30;68.10
9118;DHT22;4594;50.994;7.126;2023-12-07T08:22:36;6.50;67.80
9118;DHT22;4594;50.994;7.126;2023-12-07T08:25:06;6.70;66.10
9118;DHT22;4594;50.994;7.126;2023-12-07T08:27:36;6.80;64.50
9118;DHT22;4594;50.994;7.126;2023-12-07T08:30:03;6.90;63.90
9118;DHT22;4594;50.994;7.126;2023-12-07T08:32:29;7.10;63.10
9118;DHT22;4594;50.994;7.126;2023-12-07T08:34:55;7.20;62.20
9118;DHT22;4594;50.994;7.126;2023-12-07T08:37:20;7.30;61.80
9118;DHT22;4594;50.994;7.126;2023-12-07T08:39:46;7.30;61.70
9118;DHT22;4594;50.994;7.126;2023-12-07T08:42:12;7.40;62.10
9118;DHT22;4594;50.994;7.126;2023-12-07T08:44:38;7.40;62.30
9118;DHT22;4594;50.994;7.126;2023-12-07T08:47:04;7.50;62.70
9118;DHT22;4594;50.994;7.126;2023-12-07T08:49:30;7.50;62.60
9118;DHT22;4594;50.994;7.126;2023-12-07T08:51:57;7.60;62.50
9118;DHT22;4594;50.994;7.126;2023-12-07T08:54:23;7.70;62.60
9118;DHT22;4594;50.994;7.126;2023-12-07T08:56:49;7.70;62.60
9118;DHT22;4594;50.994;7.126;2023-12-07T08:59:15;8.20;63.00
9118;DHT22;4594;50.994;7.126;2023-12-07T09:01:40;7.70;62.40
9118;DHT22;4594;50.994;7.126;2023-12-07T09:04:06;7.80;62.40
9118;DHT22;4594;50.994;7.126;2023-12-07T09:06:32;8.50;62.90
9118;DHT22;4594;50.994;7.126;2023-12-07T09:08:57;7.80;61.90
9118;DHT22;4594;50.994;7.126;2023-12-07T09:11:23;7.90;61.50
9118;DHT22;4594;50.994;7.126;2023-12-07T09:13:49;7.90;61.80
9118;DHT22;4594;50.994;7.126;2023-12-07T09:16:16;7.90;62.00
9118;DHT22;4594;50.994;7.126;2023-12-07T09:18:42;8.00;61.40
9118;DHT22;4594;50.994;7.126;2023-12-07T09:21:10;8.00;61.00
9118;DHT22;4594;50.994;7.126;2023-12-07T09:23:36;8.00;60.60
9118;DHT22;4594;50.994;7.126;2023-12-07T09:26:03;8.00;60.30
9118;DHT22;4594;50.994;7.126;2023-12-07T09:28:29;8.00;59.90
9118;DHT22;4594;50.994;7.126;2023-12-07T09:30:54;8.00;59.50
9118;DHT22;4594;50.994;7.126;2023-12-07T09:33:20;8.00;59.20
9118;DHT22;4594;50.994;7.126;2023-12-07T09:35:46;7.90;58.90
9118;DHT22;4594;50.994;7.126;2023-12-07T09:38:12;7.90;58.30
9118;DHT22;4594;50.994;7.126;2023-12-07T09:40:38;7.90;57.90
9118;DHT22;4594;50.994;7.126;2023-12-07T09:43:04;7.80;56.90
9118;DHT22;4594;50.994;7.126;2023-12-07T09:45:29;7.70;55.90
9118;DHT22;4594;50.994;7.126;2023-12-07T09:47:55;7.60;55.50
9118;DHT22;4594;50.994;7.126;2023-12-07T09:50:23;7.50;55.70
9118;DHT22;4594;50.994;7.126;2023-12-07T09:52:54;7.40;55.60
9118;DHT22;4594;50.994;7.126;2023-12-07T09:55:22;7.30;54.70
9118;DHT22;4594;50.994;7.126;2023-12-07T09:57:49;7.20;55.70
9118;DHT22;4594;50.994;7.126;2023-12-07T10:00:16;7.10;55.60
9118;DHT22;4594;50.994;7.126;2023-12-07T10:02:44;7.10;55.90
9118;DHT22;4594;50.994;7.126;2023-12-07T10:05:13;7.00;55.90
9118;DHT22;4594;50.994;7.126;2023-12-07T10:07:45;6.90;56.00
9118;DHT22;4594;50.994;7.126;2023-12-07T10:10:13;6.90;56.50
9118;DHT22;4594;50.994;7.126;2023-12-07T10:13:01;6.90;56.80
9118;DHT22;4594;50.994;7.126;2023-12-07T10:15:26;6.80;54.90
9118;DHT22;4594;50.994;7.126;2023-12-07T10:17:58;7.20;57.40
9118;DHT22;4594;50.994;7.126;2023-12-07T10:20:26;6.70;56.10
9118;DHT22;4594;50.994;7.126;2023-12-07T10:23:03;6.70;57.00
9118;DHT22;4594;50.994;7.126;2023-12-07T10:25:37;6.70;56.00
9118;DHT22;4594;50.994;7.126;2023-12-07T10:28:04;6.60;56.80
9118;DHT22;4594;50.994;7.126;2023-12-07T10:30:33;6.60;57.30
9118;DHT22;4594;50.994;7.126;2023-12-07T10:33:02;6.50;57.10
9118;DHT22;4594;50.994;7.126;2023-12-07T10:35:29;6.50;57.40
9118;DHT22;4594;50.994;7.126;2023-12-07T10:37:55;6.50;57.10
9118;DHT22;4594;50.994;7.126;2023-12-07T10:40:20;6.50;57.20
9118;DHT22;4594;50.994;7.126;2023-12-07T10:42:48;6.50;57.40
9118;DHT22;4594;50.994;7.126;2023-12-07T10:45:15;6.50;57.00
9118;DHT22;4594;50.994;7.126;2023-12-07T10:47:43;6.50;57.80
9118;DHT22;4594;50.994;7.126;2023-12-07T10:50:10;6.50;58.00
9118;DHT22;4594;50.994;7.126;2023-12-07T10:52:59;6.60;58.60
9118;DHT22;4594;50.994;7.126;2023-12-07T10:55:55;6.50;56.30
9118;DHT22;4594;50.994;7.126;2023-12-07T10:58:23;6.60;58.30
9118;DHT22;4594;50.994;7.126;2023-12-07T11:00:52;6.60;59.30
9118;DHT22;4594;50.994;7.126;2023-12-07T11:03:18;6.70;59.60
9118;DHT22;4594;50.994;7.126;2023-12-07T11:05:49;6.70;59.90
9118;DHT22;4594;50.994;7.126;2023-12-07T11:08:26;6.70;60.00
9118;DHT22;4594;50.994;7.126;2023-12-07T11:11:04;6.80;58.70
9118;DHT22;4594;50.994;7.126;2023-12-07T11:13:49;6.90;59.40
9118;DHT22;4594;50.994;7.126;2023-12-07T11:16:42;6.90;57.60
9118;DHT22;4594;50.994;7.126;2023-12-07T11:21:56;6.90;55.40
9118;DHT22;4594;50.994;7.126;2023-12-07T11:24:33;6.80;58.00
9118;DHT22;4594;50.994;7.126;2023-12-07T11:26:59;6.90;58.60
9118;DHT22;4594;50.994;7.126;2023-12-07T11:29:26;6.90;58.20
9118;DHT22;4594;50.994;7.126;2023-12-07T11:32:04;6.90;58.20
9118;DHT22;4594;50.994;7.126;2023-12-07T11:34:40;6.90;57.40
9118;DHT22;4594;50.994;7.126;2023-12-07T11:37:11;6.90;56.80
9118;DHT22;4594;50.994;7.126;2023-12-07T11:39:41;6.90;58.00
9118;DHT22;4594;50.994;7.126;2023-12-07T11:42:16;6.90;58.20
9118;DHT22;4594;50.994;7.126;2023-12-07T11:44:44;6.90;57.50
9118;DHT22;4594;50.994;7.126;2023-12-07T11:47:18;6.90;57.60
9118;DHT22;4594;50.994;7.126;2023-12-07T11:49:46;6.80;55.80
9118;DHT22;4594;50.994;7.126;2023-12-07T11:52:18;6.80;56.70
9118;DHT22;4594;50.994;7.126;2023-12-07T11:54:49;6.80;56.20
9118;DHT22;4594;50.994;7.126;2023-12-07T11:57:16;6.70;55.90
9118;DHT22;4594;50.994;7.126;2023-12-07T11:59:46;6.70;56.50
9118;DHT22;4594;50.994;7.126;2023-12-07T12:02:15;6.60;56.10
9118;DHT22;4594;50.994;7.126;2023-12-07T12:04:41;6.60;57.10
9118;DHT22;4594;50.994;7.126;2023-12-07T12:07:07;6.60;57.20
9118;DHT22;4594;50.994;7.126;2023-12-07T12:09:33;6.60;57.20
9118;DHT22;4594;50.994;7.126;2023-12-07T12:11:59;6.50;57.10
9118;DHT22;4594;50.994;7.126;2023-12-07T12:14:27;6.50;57.10
9118;DHT22;4594;50.994;7.126;2023-12-07T12:16:56;6.50;57.10
9118;DHT22;4594;50.994;7.126;2023-12-07T12:19:22;6.50;57.30
9118;DHT22;4594;50.994;7.126;2023-12-07T12:21:51;6.50;57.20
9118;DHT22;4594;50.994;7.126;2023-12-07T12:24:17;6.40;57.30
9118;DHT22;4594;50.994;7.126;2023-12-07T12:26:42;6.40;57.50
9118;DHT22;4594;50.994;7.126;2023-12-07T12:29:09;6.40;57.50
9118;DHT22;4594;50.994;7.126;2023-12-07T12:31:37;6.40;57.70
9118;DHT22;4594;50.994;7.126;2023-12-07T12:34:06;6.40;57.60
9118;DHT22;4594;50.994;7.126;2023-12-07T12:36:34;6.40;57.20
9118;DHT22;4594;50.994;7.126;2023-12-07T12:39:00;6.40;57.70
9118;DHT22;4594;50.994;7.126;2023-12-07T12:41:27;6.40;57.90
9118;DHT22;4594;50.994;7.126;2023-12-07T12:43:56;6.40;57.80
9118;DHT22;4594;50.994;7.126;2023-12-07T12:46:22;6.40;58.10
9118;DHT22;4594;50.994;7.126;2023-12-07T12:48:53;6.40;58.20
9118;DHT22;4594;50.994;7.126;2023-12-07T12:51:29;6.40;57.80
9118;DHT22;4594;50.994;7.126;2023-12-07T12:53:59;6.50;57.90
9118;DHT22;4594;50.994;7.126;2023-12-07T12:56:26;6.50;58.50
9118;DHT22;4594;50.994;7.126;2023-12-07T12:58:53;6.50;58.60
9118;DHT22;4594;50.994;7.126;2023-12-07T13:01:21;6.50;58.80
9118;DHT22;4594;50.994;7.126;2023-12-07T13:03:48;6.60;59.00
9118;DHT22;4594;50.994;7.126;2023-12-07T13:06:17;6.60;59.00
9118;DHT22;4594;50.994;7.126;2023-12-07T13:08:44;6.60;58.30
9118;DHT22;4594;50.994;7.126;2023-12-07T13:11:18;6.60;58.90
9118;DHT22;4594;50.994;7.126;2023-12-07T13:13:46;6.70;57.50
9118;DHT22;4594;50.994;7.126;2023-12-07T13:16:18;6.70;58.50
9118;DHT22;4594;50.994;7.126;2023-12-07T13:18:45;6.70;58.00
9118;DHT22;4594;50.994;7.126;2023-12-07T13:21:11;6.70;58.60
9118;DHT22;4594;50.994;7.126;2023-12-07T13:23:37;6.70;58.50
9118;DHT22;4594;50.994;7.126;2023-12-07T13:26:03;6.70;58.50
9118;DHT22;4594;50.994;7.126;2023-12-07T13:28:29;6.70;58.40
9118;DHT22;4594;50.994;7.126;2023-12-07T13:30:55;6.70;58.30
9118;DHT22;4594;50.994;7.126;2023-12-07T13:33:21;6.70;58.00
9118;DHT22;4594;50.994;7.126;2023-12-07T13:35:48;6.70;58.10
9118;DHT22;4594;50.994;7.126;2023-12-07T13:38:14;6.70;58.10
9118;DHT22;4594;50.994;7.126;2023-12-07T13:40:40;6.80;58.10
9118;DHT22;4594;50.994;7.126;2023-12-07T13:43:06;6.80;58.30
9118;DHT22;4594;50.994;7.126;2023-12-07T13:45:32;6.70;58.20
9118;DHT22;4594;50.994;7.126;2023-12-07T13:47:57;6.80;58.20
9118;DHT22;4594;50.994;7.126;2023-12-07T13:50:24;6.80;58.30
9118;DHT22;4594;50.994;7.126;2023-12-07T13:52:49;6.70;58.20
9118;DHT22;4594;50.994;7.126;2023-12-07T13:55:15;6.70;58.20
9118;DHT22;4594;50.994;7.126;2023-12-07T13:57:41;6.80;58.20
9118;DHT22;4594;50.994;7.126;2023-12-07T14:00:07;6.80;58.20
9118;DHT22;4594;50.994;7.126;2023-12-07T14:02:38;6.80;58.20
9118;DHT22;4594;50.994;7.126;2023-12-07T14:05:04;6.80;58.30
9118;DHT22;4594;50.994;7.126;2023-12-07T14:07:30;6.80;57.90
9118;DHT22;4594;50.994;7.126;2023-12-07T14:09:56;6.80;58.00
9118;DHT22;4594;50.994;7.126;2023-12-07T14:12:22;7.10;58.20
9118;DHT22;4594;50.994;7.126;2023-12-07T14:14:48;6.80;57.90
9118;DHT22;4594;50.994;7.126;2023-12-07T14:17:16;6.80;57.80
9118;DHT22;4594;50.994;7.126;2023-12-07T14:19:43;6.70;57.60
9118;DHT22;4594;50.994;7.126;2023-12-07T14:22:09;6.70;57.70
9118;DHT22;4594;50.994;7.126;2023-12-07T14:24:36;6.70;57.50
9118;DHT22;4594;50.994;7.126;2023-12-07T14:27:02;6.70;57.30
9118;DHT22;4594;50.994;7.126;2023-12-07T14:29:31;6.70;57.20
9118;DHT22;4594;50.994;7.126;2023-12-07T14:31:57;6.70;57.00
9118;DHT22;4594;50.994;7.126;2023-12-07T14:34:24;6.70;57.00
9118;DHT22;4594;50.994;7.126;2023-12-07T14:36:52;6.90;57.20
9118;DHT22;4594;50.994;7.126;2023-12-07T14:39:18;6.60;56.90
9118;DHT22;4594;50.994;7.126;2023-12-07T14:41:49;6.60;56.90
9118;DHT22;4594;50.994;7.126;2023-12-07T14:44:17;6.60;56.00
9118;DHT22;4594;50.994;7.126;2023-12-07T14:46:47;6.50;56.70
9118;DHT22;4594;50.994;7.126;2023-12-07T14:49:15;6.50;55.80
9118;DHT22;4594;50.994;7.126;2023-12-07T14:51:47;6.50;56.50
9118;DHT22;4594;50.994;7.126;2023-12-07T14:54:13;6.40;56.50
9118;DHT22;4594;50.994;7.126;2023-12-07T14:56:39;6.40;56.50
9118;DHT22;4594;50.994;7.126;2023-12-07T14:59:06;6.40;56.50
9118;DHT22;4594;50.994;7.126;2023-12-07T15:01:32;6.30;56.30
9118;DHT22;4594;50.994;7.126;2023-12-07T15:03:59;6.30;56.40
9118;DHT22;4594;50.994;7.126;2023-12-07T15:06:25;6.30;56.40
9118;DHT22;4594;50.994;7.126;2023-12-07T15:08:52;6.20;56.40
9118;DHT22;4594;50.994;7.126;2023-12-07T15:11:17;6.20;56.40
9118;DHT22;4594;50.994;7.126;2023-12-07T15:13:43;6.20;56.40
9118;DHT22;4594;50.994;7.126;2023-12-07T15:16:09;6.10;56.50
9118;DHT22;4594;50.994;7.126;2023-12-07T15:18:35;6.10;56.30
9118;DHT22;4594;50.994;7.126;2023-12-07T15:21:05;6.10;56.30
9118;DHT22;4594;50.994;7.126;2023-12-07T15:23:31;6.00;55.60
9118;DHT22;4594;50.994;7.126;2023-12-07T15:26:00;6.00;56.30
9118;DHT22;4594;50.994;7.126;2023-12-07T15:28:28;5.90;55.60
9118;DHT22;4594;50.994;7.126;2023-12-07T15:30:53;5.90;56.10
9118;DHT22;4594;50.994;7.126;2023-12-07T15:33:19;5.90;56.20
9118;DHT22;4594;50.994;7.126;2023-12-07T15:35:45;5.90;56.20
9118;DHT22;4594;50.994;7.126;2023-12-07T15:38:11;5.80;56.20
9118;DHT22;4594;50.994;7.126;2023-12-07T15:40:37;5.80;56.30
9118;DHT22;4594;50.994;7.126;2023-12-07T15:43:04;5.80;56.10
9118;DHT22;4594;50.994;7.126;2023-12-07T15:45:29;5.70;56.10
9118;DHT22;4594;50.994;7.126;2023-12-07T15:47:56;5.70;56.10
9118;DHT22;4594;50.994;7.126;2023-12-07T15:50:22;5.70;56.40
9118;DHT22;4594;50.994;7.126;2023-12-07T15:52:47;5.60;56.10
9118;DHT22;4594;50.994;7.126;2023-12-07T15:55:13;5.60;56.40
9118;DHT22;4594;50.994;7.126;2023-12-07T15:57:40;5.70;56.30
9118;DHT22;4594;50.994;7.126;2023-12-07T16:00:07;5.70;56.20
9118;DHT22;4594;50.994;7.126;2023-12-07T16:02:33;5.50;56.30
9118;DHT22;4594;50.994;7.126;2023-12-07T16:05:01;5.50;56.20
9118;DHT22;4594;50.994;7.126;2023-12-07T16:07:27;5.50;56.20
9118;DHT22;4594;50.994;7.126;2023-12-07T16:09:53;5.40;56.10
9118;DHT22;4594;50.994;7.126;2023-12-07T16:12:19;5.40;56.50
9118;DHT22;4594;50.994;7.126;2023-12-07T16:14:44;5.40;56.40
9118;DHT22;4594;50.994;7.126;2023-12-07T16:17:11;5.40;56.40
9118;DHT22;4594;50.994;7.126;2023-12-07T16:19:37;5.30;56.30